sensor_id;sensor_type;location;lat;lon;timestamp;pressure;altitude;pressure_sealevel;temperature
24201;BMP280;2801;50.972;7.856;2022-08-19T00:02:03;97350.19;;;15.92
24201;BMP280;2801;50.972;7.856;2022-08-19T00:04:34;97344.72;;;15.88
24201;BMP280;2801;50.972;7.856;2022-08-19T00:07:05;97349.00;;;15.89
24201;BMP280;2801;50.972;7.856;2022-08-19T00:09:32;97352.88;;;15.92
24201;BMP280;2801;50.972;7.856;2022-08-19T00:12:00;97350.63;;;15.94
24201;BMP280;2801;50.972;7.856;2022-08-19T00:14:28;97352.97;;;15.95
24201;BMP280;2801;50.972;7.856;2022-08-19T00:16:58;97312.81;;;15.75
24201;BMP280;2801;50.972;7.856;2022-08-19T00:19:25;97342.50;;;15.94
24201;BMP280;2801;50.972;7.856;2022-08-19T00:21:53;97330.41;;;15.88
24201;BMP280;2801;50.972;7.856;2022-08-19T00:24:22;97340.38;;;15.84
24201;BMP280;2801;50.972;7.856;2022-08-19T00:26:49;97340.25;;;15.77
24201;BMP280;2801;50.972;7.856;2022-08-19T00:29:19;97322.59;;;15.60
24201;BMP280;2801;50.972;7.856;2022-08-19T00:31:47;97342.47;;;15.71
24201;BMP280;2801;50.972;7.856;2022-08-19T00:34:16;97331.91;;;15.63
24201;BMP280;2801;50.972;7.856;2022-08-19T00:36:44;97319.69;;;15.50
24201;BMP280;2801;50.972;7.856;2022-08-19T00:39:11;97339.22;;;15.62
24201;BMP280;2801;50.972;7.856;2022-08-19T00:41:39;97328.81;;;15.64
24201;BMP280;2801;50.972;7.856;2022-08-19T00:44:24;97319.34;;;15.51
24201;BMP280;2801;50.972;7.856;2022-08-19T00:46:56;97339.63;;;15.64
24201;BMP280;2801;50.972;7.856;2022-08-19T00:49:30;97309.94;;;15.45
24201;BMP280;2801;50.972;7.856;2022-08-19T00:52:12;97334.97;;;15.61
24201;BMP280;2801;50.972;7.856;2022-08-19T00:54:41;97310.53;;;15.54
24201;BMP280;2801;50.972;7.856;2022-08-19T00:57:17;97325.78;;;15.66
24201;BMP280;2801;50.972;7.856;2022-08-19T00:59:50;97328.56;;;15.69
24201;BMP280;2801;50.972;7.856;2022-08-19T01:02:30;97337.06;;;15.71
24201;BMP280;2801;50.972;7.856;2022-08-19T01:05:03;97330.09;;;15.70
24201;BMP280;2801;50.972;7.856;2022-08-19T01:07:32;97318.88;;;15.68
24201;BMP280;2801;50.972;7.856;2022-08-19T01:10:10;97311.91;;;15.67
24201;BMP280;2801;50.972;7.856;2022-08-19T01:12:39;97319.25;;;15.67
24201;BMP280;2801;50.972;7.856;2022-08-19T01:15:10;97322.31;;;15.65
24201;BMP280;2801;50.972;7.856;2022-08-19T01:17:40;97316.06;;;15.61
24201;BMP280;2801;50.972;7.856;2022-08-19T01:20:16;97320.66;;;15.61
24201;BMP280;2801;50.972;7.856;2022-08-19T01:22:45;97316.06;;;15.61
24201;BMP280;2801;50.972;7.856;2022-08-19T01:25:16;97315.22;;;15.57
24201;BMP280;2801;50.972;7.856;2022-08-19T01:27:48;97314.28;;;15.50
24201;BMP280;2801;50.972;7.856;2022-08-19T01:30:27;97318.34;;;15.40
24201;BMP280;2801;50.972;7.856;2022-08-19T01:32:55;97316.34;;;15.37
24201;BMP280;2801;50.972;7.856;2022-08-19T01:35:28;97325.75;;;15.43
24201;BMP280;2801;50.972;7.856;2022-08-19T01:38:02;97318.78;;;15.42
24201;BMP280;2801;50.972;7.856;2022-08-19T01:40:38;97317.19;;;15.41
24201;BMP280;2801;50.972;7.856;2022-08-19T01:43:06;97299.22;;;15.30
24201;BMP280;2801;50.972;7.856;2022-08-19T01:45:35;97324.25;;;15.46
24201;BMP280;2801;50.972;7.856;2022-08-19T01:48:03;97299.63;;;15.32
24201;BMP280;2801;50.972;7.856;2022-08-19T01:50:33;97308.34;;;15.41
24201;BMP280;2801;50.972;7.856;2022-08-19T01:53:03;97307.13;;;15.38
24201;BMP280;2801;50.972;7.856;2022-08-19T01:55:36;97302.09;;;15.37
24201;BMP280;2801;50.972;7.856;2022-08-19T01:58:14;97301.47;;;15.28
24201;BMP280;2801;50.972;7.856;2022-08-19T02:00:44;97297.72;;;15.13
24201;BMP280;2801;50.972;7.856;2022-08-19T02:03:12;97301.94;;;15.11
24201;BMP280;2801;50.972;7.856;2022-08-19T02:05:42;97304.47;;;15.04
24201;BMP280;2801;50.972;7.856;2022-08-19T02:08:10;97303.28;;;15.01
24201;BMP280;2801;50.972;7.856;2022-08-19T02:10:42;97309.44;;;15.02
24201;BMP280;2801;50.972;7.856;2022-08-19T02:13:11;97307.19;;;15.04
24201;BMP280;2801;50.972;7.856;2022-08-19T02:15:39;97301.78;;;15.04
24201;BMP280;2801;50.972;7.856;2022-08-19T02:18:07;97302.19;;;15.06
24201;BMP280;2801;50.972;7.856;2022-08-19T02:20:37;97299.84;;;15.04
24201;BMP280;2801;50.972;7.856;2022-08-19T02:23:05;97299.44;;;15.02
24201;BMP280;2801;50.972;7.856;2022-08-19T02:25:40;97295.78;;;14.95
24201;BMP280;2801;50.972;7.856;2022-08-19T02:28:07;97279.75;;;14.82
24201;BMP280;2801;50.972;7.856;2022-08-19T02:30:34;97282.88;;;14.85
24201;BMP280;2801;50.972;7.856;2022-08-19T02:33:01;97276.13;;;14.75
24201;BMP280;2801;50.972;7.856;2022-08-19T02:35:28;97288.13;;;14.77
24201;BMP280;2801;50.972;7.856;2022-08-19T02:37:55;97288.81;;;14.74
24201;BMP280;2801;50.972;7.856;2022-08-19T02:40:40;97297.72;;;14.75
24201;BMP280;2801;50.972;7.856;2022-08-19T02:43:09;97300.06;;;14.77
24201;BMP280;2801;50.972;7.856;2022-08-19T02:45:38;97281.03;;;14.69
24201;BMP280;2801;50.972;7.856;2022-08-19T02:48:07;97282.28;;;14.75
24201;BMP280;2801;50.972;7.856;2022-08-19T02:50:49;97308.44;;;14.91
24201;BMP280;2801;50.972;7.856;2022-08-19T02:53:26;97303.03;;;14.91
24201;BMP280;2801;50.972;7.856;2022-08-19T02:55:53;97288.19;;;14.81
24201;BMP280;2801;50.972;7.856;2022-08-19T02:58:22;97312.00;;;14.95
24201;BMP280;2801;50.972;7.856;2022-08-19T03:00:55;97307.75;;;14.94
24201;BMP280;2801;50.972;7.856;2022-08-19T03:03:23;97303.38;;;14.89
24201;BMP280;2801;50.972;7.856;2022-08-19T03:05:50;97299.72;;;14.78
24201;BMP280;2801;50.972;7.856;2022-08-19T03:08:24;97291.72;;;14.66
24201;BMP280;2801;50.972;7.856;2022-08-19T03:10:52;97301.66;;;14.62
24201;BMP280;2801;50.972;7.856;2022-08-19T03:13:19;97293.00;;;14.53
24201;BMP280;2801;50.972;7.856;2022-08-19T03:15:48;97308.31;;;14.49
24201;BMP280;2801;50.972;7.856;2022-08-19T03:18:16;97269.03;;;14.32
24201;BMP280;2801;50.972;7.856;2022-08-19T03:20:47;97294.66;;;14.42
24201;BMP280;2801;50.972;7.856;2022-08-19T03:23:16;97290.31;;;14.37
24201;BMP280;2801;50.972;7.856;2022-08-19T03:25:46;97281.53;;;14.25
24201;BMP280;2801;50.972;7.856;2022-08-19T03:28:33;97286.94;;;14.25
24201;BMP280;2801;50.972;7.856;2022-08-19T03:31:05;97301.72;;;14.31
24201;BMP280;2801;50.972;7.856;2022-08-19T03:33:52;97307.81;;;14.28
24201;BMP280;2801;50.972;7.856;2022-08-19T03:36:26;97313.91;;;14.25
24201;BMP280;2801;50.972;7.856;2022-08-19T03:38:59;97319.53;;;14.20
24201;BMP280;2801;50.972;7.856;2022-08-19T03:41:39;97325.28;;;14.18
24201;BMP280;2801;50.972;7.856;2022-08-19T03:44:13;97324.16;;;14.19
24201;BMP280;2801;50.972;7.856;2022-08-19T03:46:48;97330.00;;;14.21
24201;BMP280;2801;50.972;7.856;2022-08-19T03:49:17;97333.50;;;14.22
24201;BMP280;2801;50.972;7.856;2022-08-19T03:51:47;97325.81;;;14.24
24201;BMP280;2801;50.972;7.856;2022-08-19T03:54:19;97315.28;;;14.19
24201;BMP280;2801;50.972;7.856;2022-08-19T03:56:49;97330.06;;;14.25
24201;BMP280;2801;50.972;7.856;2022-08-19T03:59:24;97327.75;;;14.23
24201;BMP280;2801;50.972;7.856;2022-08-19T04:01:55;97305.81;;;14.09
24201;BMP280;2801;50.972;7.856;2022-08-19T04:04:23;97331.56;;;14.22
24201;BMP280;2801;50.972;7.856;2022-08-19T04:06:51;97319.81;;;14.15
24201;BMP280;2801;50.972;7.856;2022-08-19T04:09:19;97328.66;;;14.15
24201;BMP280;2801;50.972;7.856;2022-08-19T04:11:52;97328.59;;;14.12
24201;BMP280;2801;50.972;7.856;2022-08-19T04:14:25;97341.38;;;14.15
24201;BMP280;2801;50.972;7.856;2022-08-19T04:16:56;97348.59;;;14.11
24201;BMP280;2801;50.972;7.856;2022-08-19T04:19:23;97346.59;;;14.08
24201;BMP280;2801;50.972;7.856;2022-08-19T04:21:53;97343.28;;;13.99
24201;BMP280;2801;50.972;7.856;2022-08-19T04:24:21;97340.84;;;13.94
24201;BMP280;2801;50.972;7.856;2022-08-19T04:26:49;97337.53;;;13.85
24201;BMP280;2801;50.972;7.856;2022-08-19T04:29:21;97340.66;;;13.71
24201;BMP280;2801;50.972;7.856;2022-08-19T04:31:49;97335.63;;;13.70
24201;BMP280;2801;50.972;7.856;2022-08-19T04:34:21;97342.56;;;13.71
24201;BMP280;2801;50.972;7.856;2022-08-19T04:36:50;97345.38;;;13.74
24201;BMP280;2801;50.972;7.856;2022-08-19T04:39:28;97350.81;;;13.78
24201;BMP280;2801;50.972;7.856;2022-08-19T04:42:17;97353.25;;;13.83
24201;BMP280;2801;50.972;7.856;2022-08-19T04:45:06;97342.47;;;13.83
24201;BMP280;2801;50.972;7.856;2022-08-19T04:47:42;97349.59;;;13.91
24201;BMP280;2801;50.972;7.856;2022-08-19T04:50:24;97343.13;;;13.92
24201;BMP280;2801;50.972;7.856;2022-08-19T04:52:51;97348.75;;;14.02
24201;BMP280;2801;50.972;7.856;2022-08-19T04:55:19;97348.84;;;14.06
24201;BMP280;2801;50.972;7.856;2022-08-19T04:57:46;97342.88;;;14.12
24201;BMP280;2801;50.972;7.856;2022-08-19T05:00:13;97323.72;;;14.02
24201;BMP280;2801;50.972;7.856;2022-08-19T05:02:40;97343.13;;;14.23
24201;BMP280;2801;50.972;7.856;2022-08-19T05:05:07;97357.31;;;14.35
24201;BMP280;2801;50.972;7.856;2022-08-19T05:07:35;97364.50;;;14.47
24201;BMP280;2801;50.972;7.856;2022-08-19T05:10:05;97361.63;;;14.55
24201;BMP280;2801;50.972;7.856;2022-08-19T05:12:32;97351.34;;;14.61
24201;BMP280;2801;50.972;7.856;2022-08-19T05:15:02;97364.53;;;14.82
24201;BMP280;2801;50.972;7.856;2022-08-19T05:17:29;97366.25;;;14.90
24201;BMP280;2801;50.972;7.856;2022-08-19T05:20:04;97372.31;;;15.02
24201;BMP280;2801;50.972;7.856;2022-08-19T05:22:49;97365.66;;;15.15
24201;BMP280;2801;50.972;7.856;2022-08-19T05:25:20;97351.44;;;15.18
24201;BMP280;2801;50.972;7.856;2022-08-19T05:27:47;97366.75;;;15.49
24201;BMP280;2801;50.972;7.856;2022-08-19T05:30:16;97346.53;;;15.62
24201;BMP280;2801;50.972;7.856;2022-08-19T05:32:44;97370.75;;;15.96
24201;BMP280;2801;50.972;7.856;2022-08-19T05:35:11;97365.09;;;16.27
24201;BMP280;2801;50.972;7.856;2022-08-19T05:37:39;97350.47;;;16.54
24201;BMP280;2801;50.972;7.856;2022-08-19T05:40:09;97355.38;;;16.97
24201;BMP280;2801;50.972;7.856;2022-08-19T05:42:37;97358.88;;;17.31
24201;BMP280;2801;50.972;7.856;2022-08-19T05:45:06;97347.28;;;17.63
24201;BMP280;2801;50.972;7.856;2022-08-19T05:47:33;97351.50;;;17.94
24201;BMP280;2801;50.972;7.856;2022-08-19T05:50:08;97348.28;;;18.22
24201;BMP280;2801;50.972;7.856;2022-08-19T05:52:37;97349.31;;;18.50
24201;BMP280;2801;50.972;7.856;2022-08-19T05:55:12;97350.25;;;18.75
24201;BMP280;2801;50.972;7.856;2022-08-19T05:57:39;97343.41;;;18.95
24201;BMP280;2801;50.972;7.856;2022-08-19T06:00:07;97336.09;;;19.13
24201;BMP280;2801;50.972;7.856;2022-08-19T06:02:37;97341.25;;;19.29
24201;BMP280;2801;50.972;7.856;2022-08-19T06:05:06;97337.41;;;19.37
24201;BMP280;2801;50.972;7.856;2022-08-19T06:07:38;97341.28;;;19.36
24201;BMP280;2801;50.972;7.856;2022-08-19T06:10:09;97320.28;;;19.29
24201;BMP280;2801;50.972;7.856;2022-08-19T06:12:37;97324.19;;;19.32
24201;BMP280;2801;50.972;7.856;2022-08-19T06:15:10;97334.34;;;19.49
24201;BMP280;2801;50.972;7.856;2022-08-19T06:17:38;97324.25;;;19.53
24201;BMP280;2801;50.972;7.856;2022-08-19T06:20:09;97327.78;;;19.64
24201;BMP280;2801;50.972;7.856;2022-08-19T06:22:40;97332.84;;;19.72
24201;BMP280;2801;50.972;7.856;2022-08-19T06:25:09;97328.59;;;19.78
24201;BMP280;2801;50.972;7.856;2022-08-19T06:27:37;97317.69;;;19.75
24201;BMP280;2801;50.972;7.856;2022-08-19T06:30:24;97313.81;;;19.62
24201;BMP280;2801;50.972;7.856;2022-08-19T06:32:51;97312.97;;;19.54
24201;BMP280;2801;50.972;7.856;2022-08-19T06:35:18;97330.88;;;19.62
24201;BMP280;2801;50.972;7.856;2022-08-19T06:37:45;97321.94;;;19.55
24201;BMP280;2801;50.972;7.856;2022-08-19T06:40:12;97326.59;;;19.51
24201;BMP280;2801;50.972;7.856;2022-08-19T06:42:39;97323.47;;;19.45
24201;BMP280;2801;50.972;7.856;2022-08-19T06:45:19;97328.09;;;19.41
24201;BMP280;2801;50.972;7.856;2022-08-19T06:47:52;97330.81;;;19.41
24201;BMP280;2801;50.972;7.856;2022-08-19T06:50:23;97335.13;;;19.46
24201;BMP280;2801;50.972;7.856;2022-08-19T06:52:51;97329.31;;;19.58
24201;BMP280;2801;50.972;7.856;2022-08-19T06:55:19;97345.75;;;19.96
24201;BMP280;2801;50.972;7.856;2022-08-19T06:57:46;97338.81;;;20.23
24201;BMP280;2801;50.972;7.856;2022-08-19T07:00:15;97333.38;;;20.30
24201;BMP280;2801;50.972;7.856;2022-08-19T07:02:44;97353.19;;;20.45
24201;BMP280;2801;50.972;7.856;2022-08-19T07:05:18;97355.91;;;20.52
24201;BMP280;2801;50.972;7.856;2022-08-19T07:07:45;97357.84;;;20.62
24201;BMP280;2801;50.972;7.856;2022-08-19T07:10:13;97368.31;;;20.91
24201;BMP280;2801;50.972;7.856;2022-08-19T07:12:40;97363.25;;;21.07
24201;BMP280;2801;50.972;7.856;2022-08-19T07:15:08;97364.78;;;21.22
24201;BMP280;2801;50.972;7.856;2022-08-19T07:17:37;97359.66;;;21.42
24201;BMP280;2801;50.972;7.856;2022-08-19T07:20:08;97348.72;;;21.49
24201;BMP280;2801;50.972;7.856;2022-08-19T07:22:39;97366.16;;;21.76
24201;BMP280;2801;50.972;7.856;2022-08-19T07:25:09;97360.50;;;22.04
24201;BMP280;2801;50.972;7.856;2022-08-19T07:27:36;97347.78;;;22.38
24201;BMP280;2801;50.972;7.856;2022-08-19T07:30:07;97363.41;;;22.85
24201;BMP280;2801;50.972;7.856;2022-08-19T07:32:39;97372.28;;;22.96
24201;BMP280;2801;50.972;7.856;2022-08-19T07:35:07;97375.84;;;22.90
24201;BMP280;2801;50.972;7.856;2022-08-19T07:37:36;97375.22;;;22.75
24201;BMP280;2801;50.972;7.856;2022-08-19T07:40:06;97381.13;;;22.70
24201;BMP280;2801;50.972;7.856;2022-08-19T07:42:34;97373.75;;;22.64
24201;BMP280;2801;50.972;7.856;2022-08-19T07:45:00;97384.22;;;22.72
24201;BMP280;2801;50.972;7.856;2022-08-19T07:47:28;97395.44;;;22.85
24201;BMP280;2801;50.972;7.856;2022-08-19T07:50:16;97383.63;;;22.95
24201;BMP280;2801;50.972;7.856;2022-08-19T07:52:43;97389.31;;;23.11
24201;BMP280;2801;50.972;7.856;2022-08-19T07:55:19;97393.38;;;23.36
24201;BMP280;2801;50.972;7.856;2022-08-19T07:58:06;97386.03;;;23.93
24201;BMP280;2801;50.972;7.856;2022-08-19T08:00:34;97364.84;;;24.50
24201;BMP280;2801;50.972;7.856;2022-08-19T08:03:02;97371.38;;;25.49
24201;BMP280;2801;50.972;7.856;2022-08-19T08:05:29;97345.81;;;26.07
24201;BMP280;2801;50.972;7.856;2022-08-19T08:08:15;97365.28;;;26.80
24201;BMP280;2801;50.972;7.856;2022-08-19T08:11:00;97360.00;;;27.46
24201;BMP280;2801;50.972;7.856;2022-08-19T08:13:27;97340.09;;;27.54
24201;BMP280;2801;50.972;7.856;2022-08-19T08:15:57;97359.50;;;27.35
24201;BMP280;2801;50.972;7.856;2022-08-19T08:18:24;97352.56;;;27.30
24201;BMP280;2801;50.972;7.856;2022-08-19T08:20:57;97353.66;;;27.74
24201;BMP280;2801;50.972;7.856;2022-08-19T08:23:25;97354.97;;;27.98
24201;BMP280;2801;50.972;7.856;2022-08-19T08:25:56;97345.84;;;27.72
24201;BMP280;2801;50.972;7.856;2022-08-19T08:28:25;97356.19;;;27.68
24201;BMP280;2801;50.972;7.856;2022-08-19T08:30:56;97342.06;;;27.95
24201;BMP280;2801;50.972;7.856;2022-08-19T08:33:26;97344.50;;;28.43
24201;BMP280;2801;50.972;7.856;2022-08-19T08:36:08;97338.44;;;29.07
24201;BMP280;2801;50.972;7.856;2022-08-19T08:38:36;97326.31;;;29.26
24201;BMP280;2801;50.972;7.856;2022-08-19T08:44:17;97339.19;;;28.24
24201;BMP280;2801;50.972;7.856;2022-08-19T08:46:55;97325.84;;;28.35
24201;BMP280;2801;50.972;7.856;2022-08-19T08:49:45;97335.47;;;29.02
24201;BMP280;2801;50.972;7.856;2022-08-19T08:52:33;97332.06;;;29.41
24201;BMP280;2801;50.972;7.856;2022-08-19T08:55:15;97333.78;;;29.90
24201;BMP280;2801;50.972;7.856;2022-08-19T09:00:23;97321.88;;;29.29
24201;BMP280;2801;50.972;7.856;2022-08-19T09:02:53;97333.78;;;29.04
24201;BMP280;2801;50.972;7.856;2022-08-19T09:05:23;97334.63;;;28.67
24201;BMP280;2801;50.972;7.856;2022-08-19T09:08:02;97340.94;;;28.68
24201;BMP280;2801;50.972;7.856;2022-08-19T09:17:00;97328.47;;;28.38
24201;BMP280;2801;50.972;7.856;2022-08-19T09:19:30;97311.09;;;28.04
24201;BMP280;2801;50.972;7.856;2022-08-19T09:21:58;97327.38;;;27.86
24201;BMP280;2801;50.972;7.856;2022-08-19T09:24:27;97338.69;;;27.75
24201;BMP280;2801;50.972;7.856;2022-08-19T09:26:56;97323.53;;;27.42
24201;BMP280;2801;50.972;7.856;2022-08-19T09:29:23;97313.44;;;27.76
24201;BMP280;2801;50.972;7.856;2022-08-19T09:31:51;97316.47;;;28.32
24201;BMP280;2801;50.972;7.856;2022-08-19T09:34:17;97329.47;;;28.32
24201;BMP280;2801;50.972;7.856;2022-08-19T09:36:49;97344.97;;;27.75
24201;BMP280;2801;50.972;7.856;2022-08-19T09:39:20;97353.25;;;27.18
24201;BMP280;2801;50.972;7.856;2022-08-19T09:41:48;97319.84;;;27.04
24201;BMP280;2801;50.972;7.856;2022-08-19T09:44:17;97338.06;;;27.42
24201;BMP280;2801;50.972;7.856;2022-08-19T09:46:44;97313.44;;;27.64
24201;BMP280;2801;50.972;7.856;2022-08-19T09:49:15;97336.00;;;27.59
24201;BMP280;2801;50.972;7.856;2022-08-19T09:51:44;97318.72;;;27.58
24201;BMP280;2801;50.972;7.856;2022-08-19T09:54:17;97313.44;;;27.76
24201;BMP280;2801;50.972;7.856;2022-08-19T09:56:51;97322.31;;;28.22
24201;BMP280;2801;50.972;7.856;2022-08-19T09:59:18;97319.13;;;28.48
24201;BMP280;2801;50.972;7.856;2022-08-19T10:01:46;97318.44;;;28.57
24201;BMP280;2801;50.972;7.856;2022-08-19T10:04:13;97294.50;;;28.54
24201;BMP280;2801;50.972;7.856;2022-08-19T10:06:49;97322.63;;;29.08
24201;BMP280;2801;50.972;7.856;2022-08-19T10:09:20;97324.56;;;29.41
24201;BMP280;2801;50.972;7.856;2022-08-19T10:12:01;97324.69;;;29.59
24201;BMP280;2801;50.972;7.856;2022-08-19T10:14:30;97314.81;;;29.28
24201;BMP280;2801;50.972;7.856;2022-08-19T10:16:57;97334.94;;;29.16
24201;BMP280;2801;50.972;7.856;2022-08-19T10:19:26;97326.25;;;29.05
24201;BMP280;2801;50.972;7.856;2022-08-19T10:21:55;97325.38;;;28.95
24201;BMP280;2801;50.972;7.856;2022-08-19T10:24:26;97315.31;;;28.80
24201;BMP280;2801;50.972;7.856;2022-08-19T10:26:55;97308.81;;;28.95
24201;BMP280;2801;50.972;7.856;2022-08-19T10:29:27;97309.22;;;29.62
24201;BMP280;2801;50.972;7.856;2022-08-19T10:32:00;97313.38;;;29.66
24201;BMP280;2801;50.972;7.856;2022-08-19T10:34:30;97299.94;;;29.56
24201;BMP280;2801;50.972;7.856;2022-08-19T10:36:58;97316.66;;;29.74
24201;BMP280;2801;50.972;7.856;2022-08-19T10:39:29;97309.38;;;29.89
24201;BMP280;2801;50.972;7.856;2022-08-19T10:41:57;97306.78;;;29.64
24201;BMP280;2801;50.972;7.856;2022-08-19T10:44:24;97319.09;;;29.29
24201;BMP280;2801;50.972;7.856;2022-08-19T10:46:59;97319.72;;;28.77
24201;BMP280;2801;50.972;7.856;2022-08-19T10:49:26;97314.69;;;28.51
24201;BMP280;2801;50.972;7.856;2022-08-19T10:51:55;97280.38;;;28.52
24201;BMP280;2801;50.972;7.856;2022-08-19T10:54:46;97302.41;;;28.64
24201;BMP280;2801;50.972;7.856;2022-08-19T10:57:34;97294.56;;;28.75
24201;BMP280;2801;50.972;7.856;2022-08-19T11:00:24;97294.72;;;29.06
24201;BMP280;2801;50.972;7.856;2022-08-19T11:02:51;97276.81;;;29.32
24201;BMP280;2801;50.972;7.856;2022-08-19T11:05:19;97288.78;;;29.38
24201;BMP280;2801;50.972;7.856;2022-08-19T11:07:50;97285.72;;;29.36
24201;BMP280;2801;50.972;7.856;2022-08-19T11:10:19;97282.69;;;29.21
24201;BMP280;2801;50.972;7.856;2022-08-19T11:12:48;97268.31;;;29.05
24201;BMP280;2801;50.972;7.856;2022-08-19T11:15:15;97294.38;;;29.04
24201;BMP280;2801;50.972;7.856;2022-08-19T11:17:42;97298.13;;;28.63
24201;BMP280;2801;50.972;7.856;2022-08-19T11:20:12;97309.53;;;28.15
24201;BMP280;2801;50.972;7.856;2022-08-19T11:22:40;97306.44;;;28.01
24201;BMP280;2801;50.972;7.856;2022-08-19T11:25:10;97310.41;;;28.12
24201;BMP280;2801;50.972;7.856;2022-08-19T11:27:41;97279.63;;;28.26
24201;BMP280;2801;50.972;7.856;2022-08-19T11:30:13;97287.34;;;28.56
24201;BMP280;2801;50.972;7.856;2022-08-19T11:32:41;97292.00;;;28.81
24201;BMP280;2801;50.972;7.856;2022-08-19T11:35:15;97288.97;;;29.00
24201;BMP280;2801;50.972;7.856;2022-08-19T11:37:42;97287.38;;;29.12
24201;BMP280;2801;50.972;7.856;2022-08-19T11:40:10;97293.03;;;29.30
24201;BMP280;2801;50.972;7.856;2022-08-19T11:42:37;97265.47;;;29.39
24201;BMP280;2801;50.972;7.856;2022-08-19T11:45:27;97286.44;;;29.06
24201;BMP280;2801;50.972;7.856;2022-08-19T11:47:55;97286.56;;;28.56
24201;BMP280;2801;50.972;7.856;2022-08-19T11:50:23;97289.47;;;28.15
24201;BMP280;2801;50.972;7.856;2022-08-19T11:52:55;97294.22;;;27.89
24201;BMP280;2801;50.972;7.856;2022-08-19T11:55:23;97276.75;;;27.79
24201;BMP280;2801;50.972;7.856;2022-08-19T11:57:50;97282.38;;;27.76
24201;BMP280;2801;50.972;7.856;2022-08-19T12:00:17;97269.06;;;27.74
24201;BMP280;2801;50.972;7.856;2022-08-19T12:02:44;97279.78;;;27.85
24201;BMP280;2801;50.972;7.856;2022-08-19T12:05:11;97260.84;;;28.00
24201;BMP280;2801;50.972;7.856;2022-08-19T12:07:40;97267.38;;;28.40
24201;BMP280;2801;50.972;7.856;2022-08-19T12:10:08;97271.31;;;28.64
24201;BMP280;2801;50.972;7.856;2022-08-19T12:12:37;97255.69;;;28.36
24201;BMP280;2801;50.972;7.856;2022-08-19T12:15:10;97267.97;;;28.22
24201;BMP280;2801;50.972;7.856;2022-08-19T12:17:38;97273.22;;;28.42
24201;BMP280;2801;50.972;7.856;2022-08-19T12:20:06;97262.19;;;28.54
24201;BMP280;2801;50.972;7.856;2022-08-19T12:22:39;97241.97;;;28.57
24201;BMP280;2801;50.972;7.856;2022-08-19T12:25:10;97249.63;;;28.75
24201;BMP280;2801;50.972;7.856;2022-08-19T12:27:38;97264.00;;;29.04
24201;BMP280;2801;50.972;7.856;2022-08-19T12:30:12;97278.38;;;28.99
24201;BMP280;2801;50.972;7.856;2022-08-19T12:32:39;97273.22;;;28.88
24201;BMP280;2801;50.972;7.856;2022-08-19T12:35:07;97252.72;;;28.77
24201;BMP280;2801;50.972;7.856;2022-08-19T12:37:35;97264.16;;;28.88
24201;BMP280;2801;50.972;7.856;2022-08-19T12:40:03;97262.25;;;28.97
24201;BMP280;2801;50.972;7.856;2022-08-19T12:42:31;97255.06;;;29.00
24201;BMP280;2801;50.972;7.856;2022-08-19T12:44:57;97259.69;;;28.81
24201;BMP280;2801;50.972;7.856;2022-08-19T12:47:24;97237.03;;;28.52
24201;BMP280;2801;50.972;7.856;2022-08-19T12:49:53;97222.84;;;28.29
24201;BMP280;2801;50.972;7.856;2022-08-19T12:52:25;97232.28;;;28.06
24201;BMP280;2801;50.972;7.856;2022-08-19T12:54:56;97251.44;;;27.97
24201;BMP280;2801;50.972;7.856;2022-08-19T12:57:25;97254.84;;;27.76
24201;BMP280;2801;50.972;7.856;2022-08-19T13:00:02;97247.69;;;27.78
24201;BMP280;2801;50.972;7.856;2022-08-19T13:02:32;97233.50;;;27.93
24201;BMP280;2801;50.972;7.856;2022-08-19T13:05:07;97250.91;;;28.15
24201;BMP280;2801;50.972;7.856;2022-08-19T13:07:36;97231.34;;;28.22
24201;BMP280;2801;50.972;7.856;2022-08-19T13:10:11;97229.78;;;28.33
24201;BMP280;2801;50.972;7.856;2022-08-19T13:12:39;97242.72;;;28.11
24201;BMP280;2801;50.972;7.856;2022-08-19T13:15:08;97253.31;;;27.88
24201;BMP280;2801;50.972;7.856;2022-08-19T13:17:39;97242.59;;;27.64
24201;BMP280;2801;50.972;7.856;2022-08-19T13:20:08;97237.88;;;27.52
24201;BMP280;2801;50.972;7.856;2022-08-19T13:22:38;97235.97;;;27.49
24201;BMP280;2801;50.972;7.856;2022-08-19T13:25:07;97254.63;;;27.70
24201;BMP280;2801;50.972;7.856;2022-08-19T13:27:35;97251.97;;;27.79
24201;BMP280;2801;50.972;7.856;2022-08-19T13:30:04;97252.31;;;28.07
24201;BMP280;2801;50.972;7.856;2022-08-19T13:32:50;97248.75;;;28.44
24201;BMP280;2801;50.972;7.856;2022-08-19T13:38:13;97239.84;;;28.95
24201;BMP280;2801;50.972;7.856;2022-08-19T13:40:41;97231.66;;;28.83
24201;BMP280;2801;50.972;7.856;2022-08-19T13:43:09;97225.72;;;28.93
24201;BMP280;2801;50.972;7.856;2022-08-19T13:45:51;97233.91;;;29.18
24201;BMP280;2801;50.972;7.856;2022-08-19T13:48:20;97231.31;;;29.45
24201;BMP280;2801;50.972;7.856;2022-08-19T13:50:48;97231.28;;;29.67
24201;BMP280;2801;50.972;7.856;2022-08-19T13:53:16;97237.00;;;29.81
24201;BMP280;2801;50.972;7.856;2022-08-19T13:55:44;97234.41;;;29.78
24201;BMP280;2801;50.972;7.856;2022-08-19T13:58:12;97233.84;;;29.92
24201;BMP280;2801;50.972;7.856;2022-08-19T14:00:44;97240.34;;;30.07
24201;BMP280;2801;50.972;7.856;2022-08-19T14:03:11;97234.75;;;30.28
24201;BMP280;2801;50.972;7.856;2022-08-19T14:05:39;97246.75;;;30.43
24201;BMP280;2801;50.972;7.856;2022-08-19T14:08:06;97243.00;;;30.19
24201;BMP280;2801;50.972;7.856;2022-08-19T14:10:33;97256.88;;;29.98
24201;BMP280;2801;50.972;7.856;2022-08-19T14:13:03;97260.81;;;29.79
24201;BMP280;2801;50.972;7.856;2022-08-19T14:15:31;97240.38;;;29.76
24201;BMP280;2801;50.972;7.856;2022-08-19T14:17:58;97249.72;;;30.09
24201;BMP280;2801;50.972;7.856;2022-08-19T14:20:26;97251.00;;;30.17
24201;BMP280;2801;50.972;7.856;2022-08-19T14:22:53;97248.69;;;30.25
24201;BMP280;2801;50.972;7.856;2022-08-19T14:25:28;97248.84;;;30.30
24201;BMP280;2801;50.972;7.856;2022-08-19T14:27:56;97245.66;;;30.32
24201;BMP280;2801;50.972;7.856;2022-08-19T14:30:30;97232.59;;;30.41
24201;BMP280;2801;50.972;7.856;2022-08-19T14:33:00;97235.38;;;30.59
24201;BMP280;2801;50.972;7.856;2022-08-19T14:35:29;97235.59;;;30.83
24201;BMP280;2801;50.972;7.856;2022-08-19T14:37:56;97235.59;;;30.83
24201;BMP280;2801;50.972;7.856;2022-08-19T14:40:28;97240.16;;;30.68
24201;BMP280;2801;50.972;7.856;2022-08-19T14:42:59;97238.78;;;30.54
24201;BMP280;2801;50.972;7.856;2022-08-19T14:45:38;97243.50;;;30.36
24201;BMP280;2801;50.972;7.856;2022-08-19T14:48:08;97249.31;;;30.29
24201;BMP280;2801;50.972;7.856;2022-08-19T14:50:45;97231.19;;;30.19
24201;BMP280;2801;50.972;7.856;2022-08-19T14:53:12;97242.91;;;30.41
24201;BMP280;2801;50.972;7.856;2022-08-19T14:55:45;97243.81;;;30.38
24201;BMP280;2801;50.972;7.856;2022-08-19T14:58:13;97252.91;;;30.47